sensor_id;sensor_type;location;lat;lon;timestamp;temperature;humidity
7646;DHT22;3864;48.180;14.178;2024-01-15T00:02:23;-6.30;99.90
7646;DHT22;3864;48.180;14.178;2024-01-15T00:04:50;-6.40;99.90
7646;DHT22;3864;48.180;14.178;2024-01-15T00:07:17;-6.40;99.90
7646;DHT22;3864;48.180;14.178;2024-01-15T00:09:44;-6.50;99.90
7646;DHT22;3864;48.180;14.178;2024-01-15T00:12:11;-6.50;99.90
7646;DHT22;3864;48.180;14.178;2024-01-15T00:14:38;-6.50;99.90
7646;DHT22;3864;48.180;14.178;2024-01-15T00:17:05;-6.50;99.90
7646;DHT22;3864;48.180;14.178;2024-01-15T00:19:33;-6.40;99.90
7646;DHT22;3864;48.180;14.178;2024-01-15T00:22:00;-6.30;99.90
7646;DHT22;3864;48.180;14.178;2024-01-15T00:24:27;-6.20;99.90
7646;DHT22;3864;48.180;14.178;2024-01-15T00:26:54;-6.10;99.90
7646;DHT22;3864;48.180;14.178;2024-01-15T00:29:21;-6.00;99.90
7646;DHT22;3864;48.180;14.178;2024-01-15T00:31:48;-6.00;99.90
7646;DHT22;3864;48.180;14.178;2024-01-15T00:34:15;-5.90;99.90
7646;DHT22;3864;48.180;14.178;2024-01-15T00:36:44;-5.90;99.90
7646;DHT22;3864;48.180;14.178;2024-01-15T00:39:10;-5.90;99.90
7646;DHT22;3864;48.180;14.178;2024-01-15T00:41:38;-5.90;99.90
7646;DHT22;3864;48.180;14.178;2024-01-15T00:44:04;-6.00;99.90
7646;DHT22;3864;48.180;14.178;2024-01-15T00:46:33;-6.10;99.90
7646;DHT22;3864;48.180;14.178;2024-01-15T00:49:07;-6.10;99.90
7646;DHT22;3864;48.180;14.178;2024-01-15T00:51:34;-6.10;99.90
7646;DHT22;3864;48.180;14.178;2024-01-15T00:54:04;-6.00;99.90
7646;DHT22;3864;48.180;14.178;2024-01-15T00:56:31;-5.90;99.90
7646;DHT22;3864;48.180;14.178;2024-01-15T00:58:59;-5.90;99.90
7646;DHT22;3864;48.180;14.178;2024-01-15T01:01:26;-5.90;99.90
7646;DHT22;3864;48.180;14.178;2024-01-15T01:03:53;-5.80;99.90
7646;DHT22;3864;48.180;14.178;2024-01-15T01:06:20;-5.70;99.90
7646;DHT22;3864;48.180;14.178;2024-01-15T01:08:47;-5.60;99.90
7646;DHT22;3864;48.180;14.178;2024-01-15T01:11:16;-5.50;99.90
7646;DHT22;3864;48.180;14.178;2024-01-15T01:13:43;-5.50;99.90
7646;DHT22;3864;48.180;14.178;2024-01-15T01:16:10;-5.40;99.90
7646;DHT22;3864;48.180;14.178;2024-01-15T01:18:37;-5.50;99.90
7646;DHT22;3864;48.180;14.178;2024-01-15T01:21:04;-5.50;99.90
7646;DHT22;3864;48.180;14.178;2024-01-15T01:23:31;-5.70;99.90
7646;DHT22;3864;48.180;14.178;2024-01-15T01:25:58;-5.80;99.90
7646;DHT22;3864;48.180;14.178;2024-01-15T01:28:26;-5.90;99.90
7646;DHT22;3864;48.180;14.178;2024-01-15T01:30:53;-6.00;99.90
7646;DHT22;3864;48.180;14.178;2024-01-15T01:33:20;-6.20;99.90
7646;DHT22;3864;48.180;14.178;2024-01-15T01:35:47;-6.30;99.90
7646;DHT22;3864;48.180;14.178;2024-01-15T01:38:14;-6.40;99.90
7646;DHT22;3864;48.180;14.178;2024-01-15T01:40:41;-6.40;99.90
7646;DHT22;3864;48.180;14.178;2024-01-15T01:43:09;-6.40;99.90
7646;DHT22;3864;48.180;14.178;2024-01-15T01:45:38;-6.50;99.90
7646;DHT22;3864;48.180;14.178;2024-01-15T01:48:05;-6.60;99.90
7646;DHT22;3864;48.180;14.178;2024-01-15T01:50:33;-6.60;99.90
7646;DHT22;3864;48.180;14.178;2024-01-15T01:53:01;-6.70;99.90
7646;DHT22;3864;48.180;14.178;2024-01-15T01:55:30;-6.60;99.90
7646;DHT22;3864;48.180;14.178;2024-01-15T01:57:59;-6.70;99.90
7646;DHT22;3864;48.180;14.178;2024-01-15T02:00:26;-6.80;99.90
7646;DHT22;3864;48.180;14.178;2024-01-15T02:02:54;-6.90;99.90
7646;DHT22;3864;48.180;14.178;2024-01-15T02:05:22;-6.90;99.90
7646;DHT22;3864;48.180;14.178;2024-01-15T02:07:49;-6.90;99.90
7646;DHT22;3864;48.180;14.178;2024-01-15T02:10:16;-7.10;99.90
7646;DHT22;3864;48.180;14.178;2024-01-15T02:12:44;-7.20;99.90
7646;DHT22;3864;48.180;14.178;2024-01-15T02:15:11;-7.20;99.90
7646;DHT22;3864;48.180;14.178;2024-01-15T02:17:58;-7.00;99.90
7646;DHT22;3864;48.180;14.178;2024-01-15T02:20:25;-6.90;99.90
7646;DHT22;3864;48.180;14.178;2024-01-15T02:22:52;-6.70;99.90
7646;DHT22;3864;48.180;14.178;2024-01-15T02:25:20;-6.60;99.90
7646;DHT22;3864;48.180;14.178;2024-01-15T02:27:48;-6.40;99.90
7646;DHT22;3864;48.180;14.178;2024-01-15T02:30:15;-6.40;99.90
7646;DHT22;3864;48.180;14.178;2024-01-15T02:32:44;-6.40;99.90
7646;DHT22;3864;48.180;14.178;2024-01-15T02:35:11;-6.20;99.90
7646;DHT22;3864;48.180;14.178;2024-01-15T02:37:38;-6.40;99.90
7646;DHT22;3864;48.180;14.178;2024-01-15T02:40:06;-6.50;99.90
7646;DHT22;3864;48.180;14.178;2024-01-15T02:42:34;-6.60;99.90
7646;DHT22;3864;48.180;14.178;2024-01-15T02:45:01;-6.70;99.90
7646;DHT22;3864;48.180;14.178;2024-01-15T02:47:28;-6.80;99.90
7646;DHT22;3864;48.180;14.178;2024-01-15T02:49:55;-6.90;99.90
7646;DHT22;3864;48.180;14.178;2024-01-15T02:52:22;-6.90;99.90
7646;DHT22;3864;48.180;14.178;2024-01-15T02:54:49;-7.00;99.90
7646;DHT22;3864;48.180;14.178;2024-01-15T02:57:16;-7.10;99.90
7646;DHT22;3864;48.180;14.178;2024-01-15T02:59:45;-7.20;99.90
7646;DHT22;3864;48.180;14.178;2024-01-15T03:02:12;-7.20;99.90
7646;DHT22;3864;48.180;14.178;2024-01-15T03:04:43;-7.20;99.90
7646;DHT22;3864;48.180;14.178;2024-01-15T03:07:10;-7.20;99.90
7646;DHT22;3864;48.180;14.178;2024-01-15T03:09:37;-7.00;99.90
7646;DHT22;3864;48.180;14.178;2024-01-15T03:12:04;-6.80;99.90
7646;DHT22;3864;48.180;14.178;2024-01-15T03:14:31;-6.80;99.90
7646;DHT22;3864;48.180;14.178;2024-01-15T03:17:00;-6.50;99.90
7646;DHT22;3864;48.180;14.178;2024-01-15T03:19:27;-6.00;99.90
7646;DHT22;3864;48.180;14.178;2024-01-15T03:21:54;-5.70;99.90
7646;DHT22;3864;48.180;14.178;2024-01-15T03:24:21;-5.50;99.90
7646;DHT22;3864;48.180;14.178;2024-01-15T03:26:48;-5.40;99.90
7646;DHT22;3864;48.180;14.178;2024-01-15T03:29:15;-5.00;99.90
7646;DHT22;3864;48.180;14.178;2024-01-15T03:31:42;-4.60;99.90
7646;DHT22;3864;48.180;14.178;2024-01-15T03:34:11;-4.10;99.90
7646;DHT22;3864;48.180;14.178;2024-01-15T03:36:37;-3.70;99.90
7646;DHT22;3864;48.180;14.178;2024-01-15T03:39:04;-3.50;99.90
7646;DHT22;3864;48.180;14.178;2024-01-15T03:41:32;-3.40;99.90
7646;DHT22;3864;48.180;14.178;2024-01-15T03:43:58;-3.40;99.90
7646;DHT22;3864;48.180;14.178;2024-01-15T03:46:25;-3.20;99.90
7646;DHT22;3864;48.180;14.178;2024-01-15T03:48:53;-3.20;99.90
7646;DHT22;3864;48.180;14.178;2024-01-15T03:51:22;-3.10;99.90
7646;DHT22;3864;48.180;14.178;2024-01-15T03:53:49;-3.10;99.90
7646;DHT22;3864;48.180;14.178;2024-01-15T03:56:16;-3.00;99.90
7646;DHT22;3864;48.180;14.178;2024-01-15T03:58:43;-2.90;99.90
7646;DHT22;3864;48.180;14.178;2024-01-15T04:01:11;-2.80;99.90
7646;DHT22;3864;48.180;14.178;2024-01-15T04:03:37;-2.80;99.90
7646;DHT22;3864;48.180;14.178;2024-01-15T04:06:05;-2.80;99.90
7646;DHT22;3864;48.180;14.178;2024-01-15T04:08:33;-2.70;99.90
7646;DHT22;3864;48.180;14.178;2024-01-15T04:11:00;-2.70;99.90
7646;DHT22;3864;48.180;14.178;2024-01-15T04:13:27;-2.70;99.90
7646;DHT22;3864;48.180;14.178;2024-01-15T04:15:54;-2.50;99.90
7646;DHT22;3864;48.180;14.178;2024-01-15T04:18:21;-2.50;99.90
7646;DHT22;3864;48.180;14.178;2024-01-15T04:20:48;-2.40;99.90
7646;DHT22;3864;48.180;14.178;2024-01-15T04:23:15;-2.30;99.90
7646;DHT22;3864;48.180;14.178;2024-01-15T04:25:43;-2.40;99.90
7646;DHT22;3864;48.180;14.178;2024-01-15T04:28:11;-2.30;99.90
7646;DHT22;3864;48.180;14.178;2024-01-15T04:30:38;-2.30;99.90
7646;DHT22;3864;48.180;14.178;2024-01-15T04:33:05;-2.30;99.90
7646;DHT22;3864;48.180;14.178;2024-01-15T04:35:33;-2.30;99.90
7646;DHT22;3864;48.180;14.178;2024-01-15T04:38:00;-2.40;99.90
7646;DHT22;3864;48.180;14.178;2024-01-15T04:40:27;-2.40;99.90
7646;DHT22;3864;48.180;14.178;2024-01-15T04:42:56;-2.40;99.90
7646;DHT22;3864;48.180;14.178;2024-01-15T04:45:22;-2.50;99.90
7646;DHT22;3864;48.180;14.178;2024-01-15T04:47:54;-2.50;99.90
7646;DHT22;3864;48.180;14.178;2024-01-15T04:50:21;-2.50;99.90
7646;DHT22;3864;48.180;14.178;2024-01-15T04:52:49;-2.50;99.90
7646;DHT22;3864;48.180;14.178;2024-01-15T04:55:16;-2.50;99.90
7646;DHT22;3864;48.180;14.178;2024-01-15T04:57:43;-2.60;99.90
7646;DHT22;3864;48.180;14.178;2024-01-15T05:00:13;-2.60;99.90
7646;DHT22;3864;48.180;14.178;2024-01-15T05:02:40;-2.70;99.90
7646;DHT22;3864;48.180;14.178;2024-01-15T05:05:07;-2.70;99.90
7646;DHT22;3864;48.180;14.178;2024-01-15T05:07:34;-2.70;99.90
7646;DHT22;3864;48.180;14.178;2024-01-15T05:10:01;-2.80;99.90
7646;DHT22;3864;48.180;14.178;2024-01-15T05:12:29;-2.80;99.90
7646;DHT22;3864;48.180;14.178;2024-01-15T05:14:56;-2.80;99.90
7646;DHT22;3864;48.180;14.178;2024-01-15T05:17:24;-2.90;99.90
7646;DHT22;3864;48.180;14.178;2024-01-15T05:19:51;-3.00;99.90
7646;DHT22;3864;48.180;14.178;2024-01-15T05:22:18;-3.10;99.90
7646;DHT22;3864;48.180;14.178;2024-01-15T05:24:46;-3.20;99.90
7646;DHT22;3864;48.180;14.178;2024-01-15T05:27:13;-3.30;99.90
7646;DHT22;3864;48.180;14.178;2024-01-15T05:29:40;-3.40;99.90
7646;DHT22;3864;48.180;14.178;2024-01-15T05:32:07;-3.40;99.90
7646;DHT22;3864;48.180;14.178;2024-01-15T05:34:36;-3.40;99.90
7646;DHT22;3864;48.180;14.178;2024-01-15T05:37:03;-3.50;99.90
7646;DHT22;3864;48.180;14.178;2024-01-15T05:39:30;-3.60;99.90
7646;DHT22;3864;48.180;14.178;2024-01-15T05:41:58;-3.60;99.90
7646;DHT22;3864;48.180;14.178;2024-01-15T05:44:24;-3.70;99.90
7646;DHT22;3864;48.180;14.178;2024-01-15T05:46:52;-3.70;99.90
7646;DHT22;3864;48.180;14.178;2024-01-15T05:49:19;-3.70;99.90
7646;DHT22;3864;48.180;14.178;2024-01-15T05:51:48;-3.70;99.90
7646;DHT22;3864;48.180;14.178;2024-01-15T05:54:15;-3.80;99.90
7646;DHT22;3864;48.180;14.178;2024-01-15T05:56:42;-3.80;99.90
7646;DHT22;3864;48.180;14.178;2024-01-15T05:59:09;-3.80;99.90
7646;DHT22;3864;48.180;14.178;2024-01-15T06:01:35;-3.80;99.90
7646;DHT22;3864;48.180;14.178;2024-01-15T06:04:03;-3.70;99.90
7646;DHT22;3864;48.180;14.178;2024-01-15T06:06:29;-3.60;99.90
7646;DHT22;3864;48.180;14.178;2024-01-15T06:08:58;-3.60;99.90
7646;DHT22;3864;48.180;14.178;2024-01-15T06:11:30;-3.50;99.90
7646;DHT22;3864;48.180;14.178;2024-01-15T06:13:57;-3.40;99.90
7646;DHT22;3864;48.180;14.178;2024-01-15T06:16:26;-3.40;99.90
7646;DHT22;3864;48.180;14.178;2024-01-15T06:18:53;-3.40;99.90
7646;DHT22;3864;48.180;14.178;2024-01-15T06:21:20;-3.40;99.90
7646;DHT22;3864;48.180;14.178;2024-01-15T06:23:47;-3.50;99.90
7646;DHT22;3864;48.180;14.178;2024-01-15T06:26:15;-3.40;99.90
7646;DHT22;3864;48.180;14.178;2024-01-15T06:28:42;-3.30;99.90
7646;DHT22;3864;48.180;14.178;2024-01-15T06:31:09;-3.30;99.90
7646;DHT22;3864;48.180;14.178;2024-01-15T06:33:36;-3.20;99.90
7646;DHT22;3864;48.180;14.178;2024-01-15T06:36:04;-3.20;99.90
7646;DHT22;3864;48.180;14.178;2024-01-15T06:38:31;-3.20;99.90
7646;DHT22;3864;48.180;14.178;2024-01-15T06:40:58;-3.20;99.90
7646;DHT22;3864;48.180;14.178;2024-01-15T06:43:26;-3.20;99.90
7646;DHT22;3864;48.180;14.178;2024-01-15T06:45:53;-3.20;99.90
7646;DHT22;3864;48.180;14.178;2024-01-15T06:48:20;-3.10;99.90
7646;DHT22;3864;48.180;14.178;2024-01-15T06:50:47;-3.10;99.90
7646;DHT22;3864;48.180;14.178;2024-01-15T06:53:14;-3.20;99.90
7646;DHT22;3864;48.180;14.178;2024-01-15T06:55:41;-3.10;99.90
7646;DHT22;3864;48.180;14.178;2024-01-15T06:58:08;-3.10;99.90
7646;DHT22;3864;48.180;14.178;2024-01-15T07:00:36;-3.10;99.90
7646;DHT22;3864;48.180;14.178;2024-01-15T07:03:03;-3.10;99.90
7646;DHT22;3864;48.180;14.178;2024-01-15T07:05:30;-3.10;99.90
7646;DHT22;3864;48.180;14.178;2024-01-15T07:07:57;-3.00;99.90
7646;DHT22;3864;48.180;14.178;2024-01-15T07:10:24;-3.00;99.90
7646;DHT22;3864;48.180;14.178;2024-01-15T07:12:51;-3.00;99.90
7646;DHT22;3864;48.180;14.178;2024-01-15T07:15:19;-2.90;99.90
7646;DHT22;3864;48.180;14.178;2024-01-15T07:17:47;-2.90;99.90
7646;DHT22;3864;48.180;14.178;2024-01-15T07:20:14;-2.80;99.90
7646;DHT22;3864;48.180;14.178;2024-01-15T07:22:42;-2.80;99.90
7646;DHT22;3864;48.180;14.178;2024-01-15T07:25:09;-2.70;99.90
7646;DHT22;3864;48.180;14.178;2024-01-15T07:27:38;-2.80;99.90
7646;DHT22;3864;48.180;14.178;2024-01-15T07:30:06;-2.70;99.90
7646;DHT22;3864;48.180;14.178;2024-01-15T07:32:33;-2.60;99.90
7646;DHT22;3864;48.180;14.178;2024-01-15T07:35:01;-2.60;99.90
7646;DHT22;3864;48.180;14.178;2024-01-15T07:37:28;-2.70;99.90
7646;DHT22;3864;48.180;14.178;2024-01-15T07:39:55;-2.60;99.90
7646;DHT22;3864;48.180;14.178;2024-01-15T07:42:22;-2.60;99.90
7646;DHT22;3864;48.180;14.178;2024-01-15T07:44:49;-2.50;99.90
7646;DHT22;3864;48.180;14.178;2024-01-15T07:47:17;-2.50;99.90
7646;DHT22;3864;48.180;14.178;2024-01-15T07:49:44;-2.50;99.90
7646;DHT22;3864;48.180;14.178;2024-01-15T07:52:12;-2.50;99.90
7646;DHT22;3864;48.180;14.178;2024-01-15T07:54:39;-2.30;99.90
7646;DHT22;3864;48.180;14.178;2024-01-15T07:57:06;-2.30;99.90
7646;DHT22;3864;48.180;14.178;2024-01-15T07:59:35;-2.20;99.90
7646;DHT22;3864;48.180;14.178;2024-01-15T08:02:02;-2.10;99.90
7646;DHT22;3864;48.180;14.178;2024-01-15T08:04:29;-2.10;99.90
7646;DHT22;3864;48.180;14.178;2024-01-15T08:06:56;-2.00;99.90
7646;DHT22;3864;48.180;14.178;2024-01-15T08:09:25;-1.90;99.90
7646;DHT22;3864;48.180;14.178;2024-01-15T08:11:51;-1.80;99.90
7646;DHT22;3864;48.180;14.178;2024-01-15T08:14:18;-1.60;99.90
7646;DHT22;3864;48.180;14.178;2024-01-15T08:16:46;-1.30;99.90
7646;DHT22;3864;48.180;14.178;2024-01-15T08:19:12;-1.20;99.90
7646;DHT22;3864;48.180;14.178;2024-01-15T08:21:39;-0.90;99.90
7646;DHT22;3864;48.180;14.178;2024-01-15T08:24:07;-0.70;99.90
7646;DHT22;3864;48.180;14.178;2024-01-15T08:26:36;-0.50;99.90
7646;DHT22;3864;48.180;14.178;2024-01-15T08:29:03;-0.30;99.90
7646;DHT22;3864;48.180;14.178;2024-01-15T08:31:30;-0.20;99.90
7646;DHT22;3864;48.180;14.178;2024-01-15T08:33:57;-0.10;99.90
7646;DHT22;3864;48.180;14.178;2024-01-15T08:36:25;0.00;99.90
7646;DHT22;3864;48.180;14.178;2024-01-15T08:38:52;0.10;99.90
7646;DHT22;3864;48.180;14.178;2024-01-15T08:41:19;0.10;99.90
7646;DHT22;3864;48.180;14.178;2024-01-15T08:43:47;0.10;99.90
7646;DHT22;3864;48.180;14.178;2024-01-15T08:46:14;0.20;99.90
7646;DHT22;3864;48.180;14.178;2024-01-15T08:48:41;0.20;99.90
7646;DHT22;3864;48.180;14.178;2024-01-15T08:51:08;0.20;99.90
7646;DHT22;3864;48.180;14.178;2024-01-15T08:53:35;0.20;99.90
7646;DHT22;3864;48.180;14.178;2024-01-15T08:56:02;0.30;99.90
7646;DHT22;3864;48.180;14.178;2024-01-15T08:58:29;0.30;99.90
7646;DHT22;3864;48.180;14.178;2024-01-15T09:00:58;0.30;99.90
7646;DHT22;3864;48.180;14.178;2024-01-15T09:03:25;0.30;99.90
7646;DHT22;3864;48.180;14.178;2024-01-15T09:05:53;0.30;99.90
7646;DHT22;3864;48.180;14.178;2024-01-15T09:08:20;0.30;99.90
7646;DHT22;3864;48.180;14.178;2024-01-15T09:10:47;0.30;99.90
7646;DHT22;3864;48.180;14.178;2024-01-15T09:13:14;0.30;99.90
7646;DHT22;3864;48.180;14.178;2024-01-15T09:15:42;0.20;99.90
7646;DHT22;3864;48.180;14.178;2024-01-15T09:18:10;0.20;99.90
7646;DHT22;3864;48.180;14.178;2024-01-15T09:20:37;0.20;99.90
7646;DHT22;3864;48.180;14.178;2024-01-15T09:23:05;0.20;99.90
7646;DHT22;3864;48.180;14.178;2024-01-15T09:25:32;0.20;99.90
7646;DHT22;3864;48.180;14.178;2024-01-15T09:28:00;0.10;99.90
7646;DHT22;3864;48.180;14.178;2024-01-15T09:30:27;0.10;99.90
7646;DHT22;3864;48.180;14.178;2024-01-15T09:32:54;0.10;99.90
7646;DHT22;3864;48.180;14.178;2024-01-15T09:35:24;0.10;99.90
7646;DHT22;3864;48.180;14.178;2024-01-15T09:37:51;0.20;99.90
7646;DHT22;3864;48.180;14.178;2024-01-15T09:40:20;0.20;99.90
7646;DHT22;3864;48.180;14.178;2024-01-15T09:42:47;0.20;99.90
7646;DHT22;3864;48.180;14.178;2024-01-15T09:45:14;0.20;99.90
7646;DHT22;3864;48.180;14.178;2024-01-15T09:47:42;0.20;99.90
7646;DHT22;3864;48.180;14.178;2024-01-15T09:50:09;0.20;99.90
7646;DHT22;3864;48.180;14.178;2024-01-15T09:52:39;0.20;99.90
7646;DHT22;3864;48.180;14.178;2024-01-15T09:55:08;0.30;99.90
7646;DHT22;3864;48.180;14.178;2024-01-15T09:57:36;0.30;99.90
7646;DHT22;3864;48.180;14.178;2024-01-15T10:00:05;0.30;99.90
7646;DHT22;3864;48.180;14.178;2024-01-15T10:02:33;0.40;99.90
7646;DHT22;3864;48.180;14.178;2024-01-15T10:05:00;0.40;99.90
7646;DHT22;3864;48.180;14.178;2024-01-15T10:07:29;0.50;99.90
7646;DHT22;3864;48.180;14.178;2024-01-15T10:09:59;0.60;99.90
7646;DHT22;3864;48.180;14.178;2024-01-15T10:12:26;0.70;99.90
7646;DHT22;3864;48.180;14.178;2024-01-15T10:14:54;0.70;99.90
7646;DHT22;3864;48.180;14.178;2024-01-15T10:17:21;0.70;99.90
7646;DHT22;3864;48.180;14.178;2024-01-15T10:19:47;0.70;99.90
7646;DHT22;3864;48.180;14.178;2024-01-15T10:22:14;0.70;99.90
7646;DHT22;3864;48.180;14.178;2024-01-15T10:24:41;0.70;99.90
7646;DHT22;3864;48.180;14.178;2024-01-15T10:27:10;0.70;99.90
7646;DHT22;3864;48.180;14.178;2024-01-15T10:29:38;0.70;99.90
7646;DHT22;3864;48.180;14.178;2024-01-15T10:32:07;0.70;99.90
7646;DHT22;3864;48.180;14.178;2024-01-15T10:34:37;0.80;99.90
7646;DHT22;3864;48.180;14.178;2024-01-15T10:37:07;0.90;99.90
7646;DHT22;3864;48.180;14.178;2024-01-15T10:39:35;1.00;99.90
7646;DHT22;3864;48.180;14.178;2024-01-15T10:42:02;1.10;99.90
7646;DHT22;3864;48.180;14.178;2024-01-15T10:44:31;1.20;99.90
7646;DHT22;3864;48.180;14.178;2024-01-15T10:46:58;1.10;99.90
7646;DHT22;3864;48.180;14.178;2024-01-15T10:49:26;1.20;99.90
7646;DHT22;3864;48.180;14.178;2024-01-15T10:51:54;1.30;99.90
7646;DHT22;3864;48.180;14.178;2024-01-15T10:54:23;1.30;99.90
7646;DHT22;3864;48.180;14.178;2024-01-15T10:56:50;1.40;99.90
7646;DHT22;3864;48.180;14.178;2024-01-15T10:59:20;1.40;99.90
7646;DHT22;3864;48.180;14.178;2024-01-15T11:01:49;1.40;99.90
7646;DHT22;3864;48.180;14.178;2024-01-15T11:04:19;1.40;99.90
7646;DHT22;3864;48.180;14.178;2024-01-15T11:06:50;1.50;99.90
7646;DHT22;3864;48.180;14.178;2024-01-15T11:09:17;1.50;99.90
7646;DHT22;3864;48.180;14.178;2024-01-15T11:11:46;1.40;99.90
7646;DHT22;3864;48.180;14.178;2024-01-15T11:14:35;1.50;99.90
7646;DHT22;3864;48.180;14.178;2024-01-15T11:17:03;1.50;99.90
7646;DHT22;3864;48.180;14.178;2024-01-15T11:19:37;1.50;99.90
7646;DHT22;3864;48.180;14.178;2024-01-15T11:22:07;1.50;99.90
7646;DHT22;3864;48.180;14.178;2024-01-15T11:24:36;1.50;99.90
7646;DHT22;3864;48.180;14.178;2024-01-15T11:27:04;1.60;99.90
7646;DHT22;3864;48.180;14.178;2024-01-15T11:29:32;1.60;99.90
7646;DHT22;3864;48.180;14.178;2024-01-15T11:32:04;1.60;99.90
7646;DHT22;3864;48.180;14.178;2024-01-15T11:34:56;1.70;99.90
7646;DHT22;3864;48.180;14.178;2024-01-15T11:37:25;1.70;99.90
7646;DHT22;3864;48.180;14.178;2024-01-15T11:39:53;1.70;99.90
7646;DHT22;3864;48.180;14.178;2024-01-15T11:42:21;1.80;99.90
7646;DHT22;3864;48.180;14.178;2024-01-15T11:44:49;1.80;99.90
7646;DHT22;3864;48.180;14.178;2024-01-15T11:50:15;1.70;99.90
7646;DHT22;3864;48.180;14.178;2024-01-15T11:52:49;1.60;99.90
7646;DHT22;3864;48.180;14.178;2024-01-15T11:55:22;1.50;99.90
7646;DHT22;3864;48.180;14.178;2024-01-15T11:57:51;1.50;99.90
7646;DHT22;3864;48.180;14.178;2024-01-15T12:00:22;1.50;99.90
7646;DHT22;3864;48.180;14.178;2024-01-15T12:02:51;1.50;99.90
7646;DHT22;3864;48.180;14.178;2024-01-15T12:05:20;1.60;99.90
7646;DHT22;3864;48.180;14.178;2024-01-15T12:07:48;1.60;99.90
7646;DHT22;3864;48.180;14.178;2024-01-15T12:10:16;1.70;99.90
7646;DHT22;3864;48.180;14.178;2024-01-15T12:12:57;1.70;99.90
7646;DHT22;3864;48.180;14.178;2024-01-15T12:15:25;1.80;99.90
7646;DHT22;3864;48.180;14.178;2024-01-15T12:17:55;1.70;99.90
7646;DHT22;3864;48.180;14.178;2024-01-15T12:20:23;1.70;99.90
7646;DHT22;3864;48.180;14.178;2024-01-15T12:22:50;1.70;99.90
7646;DHT22;3864;48.180;14.178;2024-01-15T12:25:17;1.70;99.90
7646;DHT22;3864;48.180;14.178;2024-01-15T12:27:44;1.60;99.90
7646;DHT22;3864;48.180;14.178;2024-01-15T12:30:13;1.60;99.90
7646;DHT22;3864;48.180;14.178;2024-01-15T12:32:40;1.60;99.90
7646;DHT22;3864;48.180;14.178;2024-01-15T12:35:09;1.60;99.90
7646;DHT22;3864;48.180;14.178;2024-01-15T12:37:37;1.50;99.90
7646;DHT22;3864;48.180;14.178;2024-01-15T12:40:06;1.60;99.90
7646;DHT22;3864;48.180;14.178;2024-01-15T12:42:33;1.50;99.90
7646;DHT22;3864;48.180;14.178;2024-01-15T12:45:00;1.60;99.90
7646;DHT22;3864;48.180;14.178;2024-01-15T12:47:28;1.50;99.90
7646;DHT22;3864;48.180;14.178;2024-01-15T12:49:55;1.50;99.90
7646;DHT22;3864;48.180;14.178;2024-01-15T12:52:26;1.60;99.90
7646;DHT22;3864;48.180;14.178;2024-01-15T12:54:54;1.50;99.90
7646;DHT22;3864;48.180;14.178;2024-01-15T12:57:21;1.50;99.90
7646;DHT22;3864;48.180;14.178;2024-01-15T12:59:49;1.60;99.90
7646;DHT22;3864;48.180;14.178;2024-01-15T13:02:16;1.60;99.90
7646;DHT22;3864;48.180;14.178;2024-01-15T13:04:43;1.60;99.90
7646;DHT22;3864;48.180;14.178;2024-01-15T13:07:10;1.60;99.90
7646;DHT22;3864;48.180;14.178;2024-01-15T13:09:39;1.70;99.90
7646;DHT22;3864;48.180;14.178;2024-01-15T13:12:07;1.70;99.90
7646;DHT22;3864;48.180;14.178;2024-01-15T13:14:34;1.60;99.90
7646;DHT22;3864;48.180;14.178;2024-01-15T13:17:02;1.60;99.90
7646;DHT22;3864;48.180;14.178;2024-01-15T13:19:29;1.50;99.90
7646;DHT22;3864;48.180;14.178;2024-01-15T13:21:58;1.50;99.90
7646;DHT22;3864;48.180;14.178;2024-01-15T13:24:25;1.50;99.90
7646;DHT22;3864;48.180;14.178;2024-01-15T13:26:54;1.50;99.90
7646;DHT22;3864;48.180;14.178;2024-01-15T13:29:22;1.50;99.90
7646;DHT22;3864;48.180;14.178;2024-01-15T13:31:49;1.50;99.90
7646;DHT22;3864;48.180;14.178;2024-01-15T13:34:16;1.50;99.90
7646;DHT22;3864;48.180;14.178;2024-01-15T13:36:43;1.50;99.90
7646;DHT22;3864;48.180;14.178;2024-01-15T13:39:10;1.50;99.90
7646;DHT22;3864;48.180;14.178;2024-01-15T13:41:37;1.50;99.90
7646;DHT22;3864;48.180;14.178;2024-01-15T13:44:06;1.50;99.90
7646;DHT22;3864;48.180;14.178;2024-01-15T13:46:33;1.50;99.90
7646;DHT22;3864;48.180;14.178;2024-01-15T13:49:01;1.50;99.90
7646;DHT22;3864;48.180;14.178;2024-01-15T13:51:30;1.50;99.90
7646;DHT22;3864;48.180;14.178;2024-01-15T13:53:57;1.40;99.90
7646;DHT22;3864;48.180;14.178;2024-01-15T13:56:24;1.40;99.90
7646;DHT22;3864;48.180;14.178;2024-01-15T13:58:56;1.40;99.90
7646;DHT22;3864;48.180;14.178;2024-01-15T14:01:25;1.30;99.90
7646;DHT22;3864;48.180;14.178;2024-01-15T14:03:52;1.40;99.90
7646;DHT22;3864;48.180;14.178;2024-01-15T14:06:19;1.40;99.90
7646;DHT22;3864;48.180;14.178;2024-01-15T14:08:46;1.40;99.90
7646;DHT22;3864;48.180;14.178;2024-01-15T14:11:13;1.30;99.90
7646;DHT22;3864;48.180;14.178;2024-01-15T14:13:40;1.40;99.90
7646;DHT22;3864;48.180;14.178;2024-01-15T14:16:07;1.30;99.90
7646;DHT22;3864;48.180;14.178;2024-01-15T14:18:36;1.30;99.90
7646;DHT22;3864;48.180;14.178;2024-01-15T14:21:04;1.40;99.90
7646;DHT22;3864;48.180;14.178;2024-01-15T14:23:31;1.40;99.90
7646;DHT22;3864;48.180;14.178;2024-01-15T14:25:58;1.40;99.90
7646;DHT22;3864;48.180;14.178;2024-01-15T14:28:25;1.40;99.90
7646;DHT22;3864;48.180;14.178;2024-01-15T14:30:52;1.30;99.90
7646;DHT22;3864;48.180;14.178;2024-01-15T14:33:19;1.30;99.90
7646;DHT22;3864;48.180;14.178;2024-01-15T14:35:47;1.30;99.90
7646;DHT22;3864;48.180;14.178;2024-01-15T14:38:14;1.20;99.90
7646;DHT22;3864;48.180;14.178;2024-01-15T14:40:41;1.10;99.90
7646;DHT22;3864;48.180;14.178;2024-01-15T14:43:09;1.10;99.90
7646;DHT22;3864;48.180;14.178;2024-01-15T14:45:36;1.10;99.90
7646;DHT22;3864;48.180;14.178;2024-01-15T14:48:04;1.10;99.90
7646;DHT22;3864;48.180;14.178;2024-01-15T14:50:31;1.00;99.90
7646;DHT22;3864;48.180;14.178;2024-01-15T14:52:59;1.00;99.90
7646;DHT22;3864;48.180;14.178;2024-01-15T14:55:26;1.00;99.90
7646;DHT22;3864;48.180;14.178;2024-01-15T14:57:53;0.90;99.90
7646;DHT22;3864;48.180;14.178;2024-01-15T15:00:20;1.00;99.90
7646;DHT22;3864;48.180;14.178;2024-01-15T15:02:48;0.90;99.90
7646;DHT22;3864;48.180;14.178;2024-01-15T15:05:15;1.00;99.90
7646;DHT22;3864;48.180;14.178;2024-01-15T15:07:42;1.00;99.90
7646;DHT22;3864;48.180;14.178;2024-01-15T15:10:12;1.00;99.90
7646;DHT22;3864;48.180;14.178;2024-01-15T15:12:39;1.00;99.90
7646;DHT22;3864;48.180;14.178;2024-01-15T15:15:07;1.00;99.90
7646;DHT22;3864;48.180;14.178;2024-01-15T15:17:36;1.00;99.90
7646;DHT22;3864;48.180;14.178;2024-01-15T15:20:04;1.00;99.90
7646;DHT22;3864;48.180;14.178;2024-01-15T15:22:31;0.90;99.90
7646;DHT22;3864;48.180;14.178;2024-01-15T15:24:58;0.90;99.90
7646;DHT22;3864;48.180;14.178;2024-01-15T15:27:27;0.90;99.90
7646;DHT22;3864;48.180;14.178;2024-01-15T15:29:54;0.90;99.90
7646;DHT22;3864;48.180;14.178;2024-01-15T15:32:21;0.90;99.90
7646;DHT22;3864;48.180;14.178;2024-01-15T15:34:49;0.90;99.90
7646;DHT22;3864;48.180;14.178;2024-01-15T15:37:16;0.90;99.90
7646;DHT22;3864;48.180;14.178;2024-01-15T15:39:43;0.90;99.90
7646;DHT22;3864;48.180;14.178;2024-01-15T15:42:10;0.90;99.90
7646;DHT22;3864;48.180;14.178;2024-01-15T15:44:41;0.90;99.90
7646;DHT22;3864;48.180;14.178;2024-01-15T15:47:12;0.90;99.90
7646;DHT22;3864;48.180;14.178;2024-01-15T15:49:39;1.00;99.90
7646;DHT22;3864;48.180;14.178;2024-01-15T15:52:07;1.00;99.90
7646;DHT22;3864;48.180;14.178;2024-01-15T15:54:34;0.90;99.90
7646;DHT22;3864;48.180;14.178;2024-01-15T15:57:01;0.90;99.90
7646;DHT22;3864;48.180;14.178;2024-01-15T15:59:28;0.90;99.90